createdAt,value
2023-01-09T00:02:33.963Z,98953.97
2023-01-09T00:06:37.351Z,98953.19
2023-01-09T00:10:40.175Z,98966.19
2023-01-09T00:14:44.193Z,98959.44
2023-01-09T00:18:48.290Z,98957.56
2023-01-09T00:22:51.031Z,98969.19
2023-01-09T00:26:53.732Z,98963.25
2023-01-09T00:30:57.440Z,98956.19
2023-01-09T00:35:01.612Z,98955.38
2023-01-09T00:39:04.877Z,98955.91
2023-01-09T00:43:07.680Z,98955.66
2023-01-09T00:47:15.879Z,98968.38
2023-01-09T00:51:21.332Z,98957.56
2023-01-09T00:55:24.481Z,98980.31
2023-01-09T00:59:28.771Z,98977.06
2023-01-09T01:03:31.520Z,98990.59
2023-01-09T01:07:41.442Z,98979.22
2023-01-09T01:11:44.178Z,98992.75
2023-01-09T01:15:47.855Z,98985.44
2023-01-09T01:19:50.588Z,98974.03
2023-01-09T01:23:54.711Z,98989.47
2023-01-09T01:27:57.496Z,98978.38
2023-01-09T01:32:00.239Z,98981.91
2023-01-09T01:36:04.774Z,98983.50
2023-01-09T01:40:12.507Z,98993.25
2023-01-09T01:44:52.630Z,99000.03
2023-01-09T01:48:58.768Z,99002.44
2023-01-09T01:53:08.318Z,99015.44
2023-01-09T01:57:13.138Z,99009.22
2023-01-09T02:01:16.567Z,99021.94
2023-01-09T02:05:20.366Z,99020.84
2023-01-09T02:09:25.249Z,99022.19
2023-01-09T02:13:30.241Z,99018.66
2023-01-09T02:18:10.231Z,99017.00
2023-01-09T02:22:22.972Z,99029.94
2023-01-09T02:26:38.958Z,99022.63
2023-01-09T02:30:47.568Z,99023.66
2023-01-09T02:35:00.006Z,99026.63
2023-01-09T02:39:16.987Z,99033.91
2023-01-09T02:43:20.620Z,99025.78
2023-01-09T02:47:42.943Z,99024.13
2023-01-09T02:51:52.889Z,99022.47
2023-01-09T02:56:06.136Z,99031.34
2023-01-09T03:00:17.514Z,99035.38
2023-01-09T03:04:31.468Z,99035.31
2023-01-09T03:08:40.031Z,99036.84
2023-01-09T03:12:44.567Z,99046.25
2023-01-09T03:16:52.089Z,99045.66
2023-01-09T03:20:56.667Z,99038.84
2023-01-09T03:24:59.446Z,99053.13
2023-01-09T03:29:02.481Z,99056.84
2023-01-09T03:33:05.281Z,99064.34
2023-01-09T03:37:09.347Z,99066.44
2023-01-09T03:41:12.189Z,99079.84
2023-01-09T03:45:15.170Z,99071.69
2023-01-09T03:49:19.066Z,99084.84
2023-01-09T03:53:24.723Z,99097.44
2023-01-09T03:57:27.456Z,99091.44
2023-01-09T04:01:30.267Z,99092.69
2023-01-09T04:05:33.085Z,99090.22
2023-01-09T04:09:37.149Z,99090.19
2023-01-09T04:13:39.943Z,99093.69
2023-01-09T04:17:42.768Z,99094.69
2023-01-09T04:21:45.520Z,99093.88
2023-01-09T04:25:49.646Z,99103.34
2023-01-09T04:29:52.390Z,99096.88
2023-01-09T04:33:55.161Z,99105.22
2023-01-09T04:37:57.881Z,99104.09
2023-01-09T04:42:02.047Z,99112.78
2023-01-09T04:46:04.846Z,99110.34
2023-01-09T04:50:08.182Z,99109.50
2023-01-09T04:54:11.391Z,99111.38
2023-01-09T04:58:15.502Z,99113.50
2023-01-09T05:02:18.293Z,99122.84
2023-01-09T05:06:20.995Z,99125.81
2023-01-09T05:10:23.738Z,99132.75
2023-01-09T05:14:27.860Z,99142.19
2023-01-09T05:18:30.776Z,99143.44
2023-01-09T05:22:33.580Z,99146.09
2023-01-09T05:26:36.348Z,99149.78
2023-01-09T05:30:40.534Z,99143.22
2023-01-09T05:34:43.292Z,99161.19
2023-01-09T05:38:46.051Z,99162.81
2023-01-09T05:42:48.799Z,99164.66
2023-01-09T05:46:52.914Z,99153.63
2023-01-09T05:50:55.689Z,99150.03
2023-01-09T05:54:58.408Z,99162.84
2023-01-09T05:59:01.153Z,99156.16
2023-01-09T06:03:05.445Z,99158.38
2023-01-09T06:07:08.283Z,99148.13
2023-01-09T06:11:10.997Z,99150.84
2023-01-09T06:15:15.381Z,99146.00
2023-01-09T06:19:19.511Z,99150.50
2023-01-09T06:23:22.223Z,99159.75
2023-01-09T06:27:24.918Z,99153.53
2023-01-09T06:31:27.801Z,99156.88
2023-01-09T06:35:31.829Z,99158.59
2023-01-09T06:39:34.572Z,99155.22
2023-01-09T06:43:37.330Z,99154.72
2023-01-09T06:47:40.313Z,99153.72
2023-01-09T06:51:44.505Z,99151.03
2023-01-09T06:55:48.105Z,99144.91
2023-01-09T06:59:50.904Z,99157.38
2023-01-09T07:03:53.673Z,99156.31
2023-01-09T07:07:57.902Z,99150.75
2023-01-09T07:12:00.603Z,99156.47
2023-01-09T07:16:05.383Z,99159.72
2023-01-09T07:20:09.817Z,99153.31
2023-01-09T07:24:13.901Z,99156.56
2023-01-09T07:28:16.607Z,99165.00
2023-01-09T07:32:19.337Z,99159.66
2023-01-09T07:36:22.367Z,99146.41
2023-01-09T07:40:26.998Z,99153.75
2023-01-09T07:44:30.100Z,99161.34
2023-01-09T07:48:32.872Z,99166.81
2023-01-09T07:52:35.890Z,99161.47
2023-01-09T07:56:40.522Z,99163.03
2023-01-09T08:00:43.443Z,99152.84
2023-01-09T08:04:47.015Z,99155.63
2023-01-09T08:08:50.012Z,99160.50
2023-01-09T08:12:54.460Z,99169.19
2023-01-09T08:16:57.572Z,99160.81
2023-01-09T08:21:00.773Z,99162.97
2023-01-09T08:25:04.016Z,99167.31
2023-01-09T08:29:08.221Z,99159.81
2023-01-09T08:33:11.173Z,99167.19
2023-01-09T08:37:14.067Z,99172.34
2023-01-09T08:41:34.830Z,99154.00
2023-01-09T08:45:56.934Z,99159.69
2023-01-09T08:50:00.010Z,99165.69
2023-01-09T08:54:02.934Z,99171.56
2023-01-09T08:58:05.925Z,99171.03
2023-01-09T09:02:10.445Z,99186.97
2023-01-09T09:06:13.474Z,99184.22
2023-01-09T09:10:17.283Z,99180.75
2023-01-09T09:14:37.655Z,99174.00
2023-01-09T09:18:43.183Z,99177.53
2023-01-09T09:22:46.867Z,99179.41
2023-01-09T09:26:50.555Z,99181.38
2023-01-09T09:30:53.578Z,99193.25
2023-01-09T09:34:57.914Z,99189.41
2023-01-09T09:39:02.529Z,99193.19
2023-01-09T09:44:12.788Z,99195.34
2023-01-09T09:48:32.179Z,99209.16
2023-01-09T09:52:44.900Z,99210.22
2023-01-09T09:56:52.737Z,99213.69
2023-01-09T10:00:56.915Z,99216.97
2023-01-09T10:05:04.961Z,99222.38
2023-01-09T10:09:17.894Z,99216.97
2023-01-09T10:13:41.157Z,99220.16
2023-01-09T10:17:56.649Z,99216.69
2023-01-09T10:22:08.086Z,99208.06
2023-01-09T10:26:21.933Z,99213.53
2023-01-09T10:30:33.644Z,99219.00
2023-01-09T10:34:50.871Z,99219.31
2023-01-09T10:38:58.372Z,99203.41
2023-01-09T10:43:08.165Z,99209.13
2023-01-09T10:47:17.339Z,99208.91
2023-01-09T10:51:25.335Z,99220.63
2023-01-09T10:55:36.266Z,99227.09
2023-01-09T10:59:41.648Z,99230.06
2023-01-09T11:03:44.669Z,99227.31
2023-01-09T11:07:52.330Z,99240.84
2023-01-09T11:11:55.461Z,99230.03
2023-01-09T11:16:09.055Z,99240.56
2023-01-09T11:20:17.958Z,99251.97
2023-01-09T11:24:30.877Z,99258.75
2023-01-09T11:28:34.178Z,99271.38
2023-01-09T11:32:39.676Z,99279.75
2023-01-09T11:36:43.011Z,99278.13
2023-01-09T11:40:50.069Z,99289.50
2023-01-09T11:44:58.997Z,99277.06
2023-01-09T11:49:05.463Z,99306.03
2023-01-09T11:53:18.902Z,99322.94
2023-01-09T11:57:23.555Z,99335.22
2023-01-09T12:01:52.110Z,99329.13
2023-01-09T12:06:04.410Z,99329.81
2023-01-09T12:10:27.715Z,99336.69
2023-01-09T12:14:46.907Z,99347.44
2023-01-09T12:19:01.445Z,99344.41
2023-01-09T12:23:21.541Z,99337.13
2023-01-09T12:27:40.849Z,99354.16
2023-01-09T12:31:59.186Z,99354.97
2023-01-09T12:36:15.196Z,99356.38
2023-01-09T12:40:37.067Z,99355.88
2023-01-09T12:45:00.421Z,99362.97
2023-01-09T12:49:31.389Z,99360.44
2023-01-09T12:53:42.305Z,99363.16
2023-01-09T12:57:51.457Z,99377.09
2023-01-09T13:01:55.264Z,99369.34
2023-01-09T13:05:59.474Z,99386.72
2023-01-09T13:10:08.577Z,99395.19
2023-01-09T13:14:18.867Z,99392.84
2023-01-09T13:18:28.610Z,99400.59
2023-01-09T13:22:31.527Z,99414.81
2023-01-09T13:26:39.108Z,99407.84
2023-01-09T13:31:09.371Z,99415.50
2023-01-09T13:35:14.626Z,99416.03
2023-01-09T13:39:24.425Z,99429.56
2023-01-09T13:43:27.493Z,99439.78
2023-01-09T13:47:32.800Z,99450.84
2023-01-09T13:51:57.811Z,99459.47
2023-01-09T13:56:07.124Z,99468.91
2023-01-09T14:00:47.583Z,99471.88
2023-01-09T14:04:52.067Z,99487.28
2023-01-09T14:09:13.748Z,99485.63
2023-01-09T14:13:19.637Z,99492.69
2023-01-09T14:17:32.464Z,99501.63
2023-01-09T14:21:52.117Z,99509.22
2023-01-09T14:25:56.172Z,99529.06
2023-01-09T14:30:28.054Z,99545.03
2023-01-09T14:34:36.564Z,99555.59
2023-01-09T14:38:44.831Z,99560.53
2023-01-09T14:42:52.783Z,99571.34
2023-01-09T14:46:57.294Z,99574.59
2023-01-09T14:51:01.320Z,99581.91
2023-01-09T14:55:18.586Z,99594.88
2023-01-09T14:59:22.689Z,99603.22
2023-01-09T15:03:30.468Z,99611.84
2023-01-09T15:07:40.507Z,99623.19
2023-01-09T15:11:45.527Z,99641.78
2023-01-09T15:15:50.197Z,99657.13
2023-01-09T15:19:53.804Z,99661.41
2023-01-09T15:24:11.783Z,99671.88
2023-01-09T15:28:25.973Z,99675.13
2023-01-09T15:32:30.890Z,99684.84
2023-01-09T15:36:38.606Z,99694.50
2023-01-09T15:40:41.676Z,99703.34
2023-01-09T15:44:49.814Z,99707.09
2023-01-09T15:48:55.030Z,99724.41
2023-01-09T15:52:58.858Z,99739.81
2023-01-09T15:57:35.752Z,99749.56
2023-01-09T16:01:41.613Z,99747.09
2023-01-09T16:05:47.319Z,99760.50
2023-01-09T16:09:52.903Z,99770.19
2023-01-09T16:13:57.693Z,99775.00
2023-01-09T16:18:19.139Z,99790.09
2023-01-09T16:22:24.298Z,99803.25
2023-01-09T16:26:28.475Z,99809.16
2023-01-09T16:30:31.455Z,99805.28
2023-01-09T16:34:37.180Z,99819.16
2023-01-09T16:38:42.615Z,99834.00
2023-01-09T16:43:01.883Z,99848.47
2023-01-09T16:47:05.050Z,99842.44
2023-01-09T16:51:15.455Z,99858.78
2023-01-09T16:55:18.434Z,99850.69
2023-01-09T16:59:24.556Z,99869.59
2023-01-09T17:03:28.027Z,99876.06
2023-01-09T17:07:34.434Z,99886.41
2023-01-09T17:11:39.327Z,99895.34
2023-01-09T17:15:42.287Z,99892.63
2023-01-09T17:19:46.587Z,99901.31
2023-01-09T17:24:12.082Z,99905.34
2023-01-09T17:28:33.917Z,99916.25
2023-01-09T17:32:36.883Z,99909.91
2023-01-09T17:36:41.595Z,99915.19
2023-01-09T17:40:46.953Z,99923.28
2023-01-09T17:44:49.868Z,99940.22
2023-01-09T17:48:54.140Z,99930.69
2023-01-09T17:52:57.348Z,99955.81
2023-01-09T17:57:02.864Z,99954.06
2023-01-09T18:01:06.029Z,99958.75
2023-01-09T18:05:09.556Z,99967.31
2023-01-09T18:09:17.055Z,99971.09
2023-01-09T18:13:21.503Z,99986.91
2023-01-09T18:17:24.522Z,99989.38
2023-01-09T18:21:29.435Z,100003.59
2023-01-09T18:25:32.415Z,100002.75
2023-01-09T18:29:37.089Z,100009.91
2023-01-09T18:33:41.164Z,100022.19
2023-01-09T18:37:44.212Z,100030.53
2023-01-09T18:41:47.196Z,100029.13
2023-01-09T18:45:55.023Z,100037.22
2023-01-09T18:49:58.094Z,100044.63
2023-01-09T18:54:01.738Z,100050.03
2023-01-09T18:58:07.586Z,100053.34
2023-01-09T19:02:20.446Z,100060.59
2023-01-09T19:06:23.653Z,100075.97
2023-01-09T19:10:26.582Z,100079.47
2023-01-09T19:14:29.792Z,100078.91
2023-01-09T19:18:39.263Z,100094.03
2023-01-09T19:22:41.960Z,100104.63
2023-01-09T19:26:46.422Z,100116.38
2023-01-09T19:30:55.580Z,100115.47
2023-01-09T19:34:59.976Z,100122.91
2023-01-09T19:39:04.722Z,100120.78
2023-01-09T19:43:07.743Z,100134.91
2023-01-09T19:47:11.932Z,100138.19
2023-01-09T19:51:18.771Z,100153.09
2023-01-09T19:55:22.183Z,100161.66
2023-01-09T19:59:25.025Z,100173.88
2023-01-09T20:03:28.377Z,100181.63
2023-01-09T20:07:32.610Z,100193.69
2023-01-09T20:11:35.531Z,100204.28
2023-01-09T20:15:40.564Z,100202.41
2023-01-09T20:19:45.463Z,100215.47
2023-01-09T20:23:50.939Z,100224.97
2023-01-09T20:27:53.879Z,100227.25
2023-01-09T20:31:56.961Z,100239.44
2023-01-09T20:36:01.613Z,100237.56
2023-01-09T20:40:06.912Z,100252.53
2023-01-09T20:44:14.236Z,100271.78
2023-01-09T20:48:17.175Z,100268.50
2023-01-09T20:52:22.538Z,100269.31
2023-01-09T20:56:28.755Z,100284.94
2023-01-09T21:00:32.409Z,100298.44
2023-01-09T21:04:35.356Z,100309.09
2023-01-09T21:08:38.616Z,100320.44
2023-01-09T21:12:44.462Z,100323.19
2023-01-09T21:16:54.684Z,100330.09
2023-01-09T21:20:58.355Z,100333.91
2023-01-09T21:25:01.625Z,100350.75
2023-01-09T21:29:08.212Z,100364.66
2023-01-09T21:33:12.378Z,100368.59
2023-01-09T21:37:16.692Z,100374.00
2023-01-09T21:41:39.599Z,100369.44
2023-01-09T21:46:01.318Z,100399.94
2023-01-09T21:50:04.838Z,100408.88
2023-01-09T21:54:08.053Z,100415.31
2023-01-09T21:58:11.518Z,100416.97
2023-01-09T22:02:16.778Z,100426.31
2023-01-09T22:06:19.869Z,100435.81
2023-01-09T22:10:22.921Z,100441.63
2023-01-09T22:14:25.792Z,100454.47
2023-01-09T22:18:30.296Z,100455.69
2023-01-09T22:22:32.996Z,100458.38
2023-01-09T22:26:36.217Z,100464.59
2023-01-09T22:30:41.261Z,100468.59
2023-01-09T22:34:47.245Z,100490.78
2023-01-09T22:38:52.163Z,100494.75
2023-01-09T22:42:55.761Z,100497.06
2023-01-09T22:47:00.298Z,100507.50
2023-01-09T22:51:06.476Z,100516.22
2023-01-09T22:55:11.355Z,100521.59
2023-01-09T22:59:15.691Z,100527.22
2023-01-09T23:03:18.726Z,100525.16
2023-01-09T23:07:23.459Z,100534.91
2023-01-09T23:11:46.713Z,100546.94
2023-01-09T23:15:49.886Z,100553.63
2023-01-09T23:19:53.656Z,100568.38
2023-01-09T23:23:59.974Z,100564.25
2023-01-09T23:28:02.868Z,100573.81
2023-01-09T23:32:06.435Z,100585.28
2023-01-09T23:36:10.343Z,100605.84
2023-01-09T23:40:14.671Z,100610.88
2023-01-09T23:44:19.645Z,100618.78
2023-01-09T23:48:25.463Z,100629.19
2023-01-09T23:52:31.320Z,100633.97
2023-01-09T23:56:36.065Z,100642.69
